• Join FlightAware (Why Join?)
  • Login
  • US Flag 
08:21PM EST


 

Airport Tracker/Info


-or-


 

Live Flight TrackerFlight Track Log ✈ EJA941 ✈ 02-May-2013 ✈ KMSL - KJAX

Flight Track Log - Related Links

Times and Time Zones

All times are in EDT time to prevent confusion due to time zone crossing. See the EJA941 flight status page for this flight to view local times or setup timezone preferences in your user account.

Time Position Orientation Groundspeed Altitude Reporting Facility
EDT Latitude Longitude Course Direction KTS MPH feet Rate Location/Type
08:34AM 34.6453 -87.5272 155° Southeast 417 480 7,400  Level Memphis Center
08:35AM 34.5817 -87.4839 151° Southeast 333 383 10,500 2,220 Climbing Memphis Center
08:36AM 34.5033 -87.4336 152° Southeast 320 368 11,900 1,980 Climbing Memphis Center
08:37AM 34.4164 -87.3761 151° Southeast 327 376 14,500 1,740 Climbing Memphis Center
08:39AM 34.0975 -87.1653 155° Southeast  Level FlightAware Approximate
08:39AM 34.2239 -87.2519 152° Southeast 387 445 17,400  Level Atlanta Center
08:40AM 34.1275 -87.1906 152° Southeast 397 457 18,900 1,620 Climbing Atlanta Center
08:41AM 34.0311 -87.1294 152° Southeast 397 457 20,700 1,800 Climbing Atlanta Center
08:42AM 33.9303 -87.0656 152° Southeast 402 463 22,500 1,560 Climbing Atlanta Center
08:43AM 33.8275 -86.9994 152° Southeast 407 468 23,900 1,440 Climbing Atlanta Center
08:44AM 33.7186 -86.9308 152° Southeast 420 483 25,400 1,380 Climbing Atlanta Center
08:45AM 33.6378 -86.8183 131° Southeast 433 498 26,700 1,320 Climbing Atlanta Center
08:46AM 33.5886 -86.6747 112° Southeast 442 509 28,100 1,260 Climbing Atlanta Center
08:47AM 33.5372 -86.5336 114° Southeast 452 520 29,300 1,320 Climbing Atlanta Center
08:48AM 33.4800 -86.3700 113° Southeast 472 543 30,800 1,500 Climbing Atlanta Center
08:49AM 33.4264 -86.2192 113° Southeast 482 555 32,400 1,440 Climbing Atlanta Center
08:50AM 33.3686 -86.0636 114° Southeast 488 562 33,700 1,800 Climbing Atlanta Center
08:51AM 33.3125 -85.9056 113° Southeast 502 578 36,000 1,620 Climbing Atlanta Center
08:52AM 33.2542 -85.7528 115° Southeast 502 578 37,000 480 Climbing Atlanta Center
08:53AM 33.1958 -85.5928 114° Southeast 509 586 37,000  Level Atlanta Center
08:54AM 33.1353 -85.4281 114° Southeast 522 601 37,000  Level Atlanta Center
08:55AM 33.0722 -85.2658 115° Southeast 528 608 37,000 -540 Level Atlanta Center
08:56AM 33.0006 -85.1139 119° Southeast 528 608 36,000 -900 Descending Atlanta Center
08:57AM 32.9244 -84.9692 122° Southeast 522 601 35,300 -960 Descending Atlanta Center
08:58AM 32.8378 -84.8250 126° Southeast 527 606 34,100 -660 Descending Atlanta Center
08:59AM 32.7572 -84.6761 123° Southeast 527 606 34,000 -300 Descending Atlanta Center
09:00AM 32.6767 -84.5250 122° Southeast 534 615 33,500 -540 Descending Atlanta Center
09:01AM 32.5956 -84.3792 123° Southeast 534 615 33,000 -300 Descending Atlanta Center
09:02AM 32.5125 -84.2333 124° Southeast 534 615 33,000  Level Atlanta Center
09:03AM 32.4333 -84.0906 123° Southeast 527 606 33,000  Level Atlanta Center
09:04AM 32.3561 -83.9478 123° Southeast 527 606 33,000 -780 Level Atlanta Center
09:06AM 32.2264 -83.7178 124° Southeast 524 603 31,000 -1,260 Descending Jacksonville Center
09:07AM 32.1481 -83.5772 123° Southeast 524 603 29,600 -1,440 Descending Jacksonville Center
09:08AM 32.0611 -83.4244 124° Southeast 524 603 28,200 -1,380 Descending Jacksonville Center
09:09AM 31.9842 -83.2894 124° Southeast 511 588 26,900 -1,320 Descending Jacksonville Center
09:10AM 31.9117 -83.1619 124° Southeast 492 566 25,600 -1,320 Descending Jacksonville Center
09:11AM 31.8386 -83.0294 123° Southeast 486 559 24,300 -840 Descending Jacksonville Center
09:12AM 31.7656 -82.9072 125° Southeast 475 547 24,000 -960 Descending Jacksonville Center
09:13AM 31.6947 -82.7803 123° Southeast 470 541 22,400 -1,560 Descending Jacksonville Center
09:14AM 31.6192 -82.6536 125° Southeast 470 541 20,900 -1,500 Descending Jacksonville Center
09:15AM 31.5481 -82.5342 125° Southeast 465 535 19,400 -1,500 Descending Jacksonville Center
09:16AM 31.4475 -82.4617 148° Southeast 424 488 17,900 -1,500 Descending Jacksonville Center
09:17AM 31.3389 -82.4158 160° South 409 471 16,400 -1,440 Descending Jacksonville Center
09:18AM 31.2364 -82.3628 156° South 409 471 15,100 -1,380 Descending Jacksonville Center
09:19AM 31.1506 -82.3172 156° South 396 456 14,000 -1,320 Descending Jacksonville Center
09:20AM 31.0417 -82.2622 157° South 388 447 12,600 -960 Descending Jacksonville Center
09:21AM 30.9600 -82.2289 161° South 293 337 12,000 -420 Descending Jacksonville Center
09:21AM 30.9142 -82.2097 160° South 265 305 12,000 -960 Level Jacksonville Center
09:22AM 30.8867 -82.1833 141° Southeast 311 358 11,000 -1,800 Descending Jacksonville Center
09:23AM 30.8508 -82.1353 131° Southeast 273 314 10,000 -1,500 Descending Jacksonville Center
09:23AM 30.8342 -82.1208 143° Southeast 277 319 9,500 -1,320 Descending Jacksonville Center
09:23AM 30.8047 -82.0822 132° Southeast 265 305 8,800 -1,320 Descending Jacksonville Center
09:24AM 30.7836 -82.0608 139° Southeast 271 312 8,200 -1,320 Descending Jacksonville Center
09:24AM 30.7542 -82.0272 136° Southeast 247 284 7,500 -1,320 Descending Jacksonville Center
09:25AM 30.7353 -82.0081 139° Southeast 256 295 6,900 -1,200 Descending Jacksonville Center
09:25AM 30.7100 -81.9769 133° Southeast 219 252 6,300 -1,140 Descending Jacksonville Center
09:26AM 30.6933 -81.9600 139° Southeast 233 268 5,800 -1,140 Descending Jacksonville Center
09:26AM 30.6681 -81.9289 133° Southeast 207 238 5,200 -1,140 Descending Jacksonville Center
09:27AM 30.6531 -81.9122 136° Southeast 213 245 4,700 -1,080 Descending Jacksonville Center
09:28AM 30.6300 -81.8858 135° Southeast 166 191 4,000 -840 Descending Jacksonville Center
09:28AM 30.6217 -81.8786 143° Southeast 196 226 3,900 -1,020 Descending Jacksonville Center
09:28AM 30.5983 -81.8475 131° Southeast 167 192 3,100 -1,020 Descending Jacksonville Center
09:30AM 30.5689 -81.8092 132° Southeast 158 182 2,200 -780 Descending Jacksonville Center
09:31AM 30.5456 -81.7781 131° Southeast 99 114 1,600 -600 Descending Jacksonville Center
09:32AM 30.5222 -81.7472 131° Southeast 129 148 1,100 -600 Descending Jacksonville Center
09:33AM 30.5011 -81.7183 130° Southeast 133 153 400 -720 Descending Jacksonville Center
09:35AM 30.4941 -81.6879 120° Southeast  Level Estimated